INFORMACIÓN METAR y TAF
METAR FOR LFKB
ADDS - METARS form results

(1526 UTC 13 November 2019)
Data provider http://aviationweather.gov/metar/data/
 
METAR text: LFKB 131500Z AUTO 31009KT CAVOK 16/03 Q1001 NOSIG
Conditions at: LFKB (BASTIA/PORETTA , FR) observed 1500 UTC 13 November 2019
Temperature: 16.0°C (61°F)
Dewpoint: 3.0°C (37°F) [RH = 42%]
Pressure (altimeter): 29.56 inches Hg (1001.0 mb)
Winds: from the NW (310 degrees) at 10 MPH (9 knots; 4.6 m/s)
Visibility: 6 or more miles (10+ km)
Ceiling: ceiling and visibility are OK
Clouds: unknown
Weather: no significant weather observed at this time

METAR text: LFKB 131430Z AUTO 30009KT 270V330 CAVOK 16/03 Q1001 NOSIG
Conditions at: LFKB (BASTIA/PORETTA , FR) observed 1430 UTC 13 November 2019
Temperature: 16.0°C (61°F)
Dewpoint: 3.0°C (37°F) [RH = 42%]
Pressure (altimeter): 29.56 inches Hg (1001.0 mb)
Winds: from the WNW (300 degrees) at 10 MPH (9 knots; 4.6 m/s)
Visibility: 6 or more miles (10+ km)
Ceiling: ceiling and visibility are OK
Clouds: unknown
Weather: no significant weather observed at this time

Forecast for: LFKB (BASTIA/PORETTA , FR)
Text: TAF LFKB 131400Z 1315/1415 32010KT CAVOK TX16/1315Z TN09/1405Z
Forecast period: 1500 to 1900 UTC 13 November 2019
Forecast type: FROM: standard forecast or significant change
Winds: from the NW (320 degrees) at 12 MPH (10 knots; 5.1 m/s)
Visibility: 6 or more miles 10+ km)
Ceiling: unknown
Clouds: missing
Weather: no significant weather forecast for this period
Text: BECMG 1319/1321 23006KT
Forecast period: 1900 UTC 13 November 2019 to 1200 UTC 14 November 2019
Forecast type: BECOMING: Conditions expected to become as follows by 2100 UTC 13 November 2019
Winds: from the SW (230 degrees) at 7 MPH (6 knots; 3.1 m/s)
Visibility: 6 or more miles 10+ km)
Ceiling: unknown
Clouds: missing
Weather: no significant weather forecast for this period
Text: BECMG 1412/1415 15010KT BKN025 OVC250
Forecast period: 1200 to 1500 UTC 14 November 2019
Forecast type: BECOMING: Conditions expected to become as follows by 1500 UTC 14 November 2019
Winds: from the SSE (150 degrees) at 12 MPH (10 knots; 5.1 m/s)
Visibility: 6 or more miles 10+ km)
Ceiling: 2500 feet AGL
Clouds: broken clouds at 2500 feet AGL
overcast cloud deck at 25000 feet AGL
Weather: no significant weather forecast for this period

 MAPA DE AEROPUERTO

 INFORMACIÓN DE PISTA
Pista 16 Longitud 8266 ft Ancho 148 ft
Elevación 13 ft Umbral desplazado 0 ft Rumbo de pista 163
Pista 34 Longitud 8266 ft Ancho 148 ft
Elevación 26 ft Umbral desplazado 0 ft Rumbo de pista 343

 FRECUANCIAS DEL AEROPUERTO
Tipo AFIS Nombre BASTIA INF Frecuencia 124.725 MHZ
Tipo APP Nombre BASTIA RAD Frecuencia 123.825 MHZ
Tipo ARR Nombre BASTIA APP Frecuencia 37.85 MHZ
Tipo ATIS Nombre BASTIA ATI Frecuencia 125.925 MHZ
Tipo GND Nombre GND Frecuencia 121.825 MHZ
Tipo TWR Nombre BASTIA TWR Frecuencia 118 MHZ

 RADIO AYUDAS DEL AEROPUERTO
Tipo VOR-DME Nombre Bastia Frecuencia 114150 KHZ




Normativa | Spanair Virtual © 2019 |